createdAt,value
2023-04-12T00:00:55.767Z,1.75
2023-04-12T00:03:22.847Z,1.85
2023-04-12T00:05:55.029Z,1.95
2023-04-12T00:08:26.467Z,1.60
2023-04-12T00:10:53.472Z,1.55
2023-04-12T00:13:20.260Z,1.58
2023-04-12T00:15:47.012Z,1.80
2023-04-12T00:18:13.720Z,2.00
2023-04-12T00:20:40.343Z,1.80
2023-04-12T00:23:07.098Z,2.03
2023-04-12T00:25:33.743Z,2.15
2023-04-12T00:28:00.617Z,1.85
2023-04-12T00:30:28.334Z,1.98
2023-04-12T00:32:55.032Z,1.77
2023-04-12T00:35:21.774Z,1.92
2023-04-12T00:37:48.411Z,2.20
2023-04-12T00:40:15.431Z,2.20
2023-04-12T00:42:42.309Z,1.67
2023-04-12T00:45:09.463Z,1.92
2023-04-12T00:47:37.220Z,2.10
2023-04-12T00:50:05.042Z,2.13
2023-04-12T00:52:34.342Z,2.25
2023-04-12T00:55:05.155Z,2.17
2023-04-12T00:57:37.126Z,2.03
2023-04-12T01:00:13.241Z,2.00
2023-04-12T01:02:42.902Z,2.03
2023-04-12T01:05:14.914Z,2.10
2023-04-12T01:08:12.621Z,1.90
2023-04-12T01:11:04.269Z,2.10
2023-04-12T01:13:36.268Z,2.63
2023-04-12T01:16:09.529Z,2.05
2023-04-12T01:18:40.923Z,2.10
2023-04-12T01:21:15.597Z,1.90
2023-04-12T01:23:42.905Z,2.25
2023-04-12T01:26:40.698Z,2.88
2023-04-12T01:29:12.471Z,2.17
2023-04-12T01:31:41.274Z,2.17
2023-04-12T01:34:11.126Z,2.50
2023-04-12T01:36:39.642Z,2.17
2023-04-12T01:39:07.685Z,2.50
2023-04-12T01:41:39.489Z,2.20
2023-04-12T01:44:06.425Z,2.22
2023-04-12T01:46:34.409Z,2.50
2023-04-12T01:49:01.515Z,2.50
2023-04-12T01:51:52.998Z,2.63
2023-04-12T01:54:25.308Z,2.47
2023-04-12T01:56:57.943Z,2.08
2023-04-12T01:59:28.647Z,2.10
2023-04-12T02:01:55.732Z,2.10
2023-04-12T02:04:23.017Z,1.75
2023-04-12T02:06:49.785Z,1.83
2023-04-12T02:09:16.757Z,1.52
2023-04-12T02:11:48.451Z,1.95
2023-04-12T02:14:16.189Z,2.13
2023-04-12T02:16:44.855Z,1.77
2023-04-12T02:19:12.294Z,2.78
2023-04-12T02:21:43.135Z,2.28
2023-04-12T02:24:11.295Z,2.47
2023-04-12T02:26:38.750Z,2.65
2023-04-12T02:29:09.193Z,2.40
2023-04-12T02:31:38.830Z,2.50
2023-04-12T02:34:09.141Z,2.75
2023-04-12T02:36:38.418Z,2.47
2023-04-12T02:39:05.624Z,2.35
2023-04-12T02:41:34.656Z,3.00
2023-04-12T02:44:02.267Z,2.90
2023-04-12T02:46:30.953Z,2.47
2023-04-12T02:48:59.102Z,2.17
2023-04-12T02:51:34.122Z,2.22
2023-04-12T02:54:01.544Z,2.35
2023-04-12T02:56:38.191Z,2.40
2023-04-12T02:59:20.492Z,2.38
2023-04-12T03:02:07.528Z,2.30
2023-04-12T03:04:37.479Z,2.50
2023-04-12T03:07:05.542Z,2.20
2023-04-12T03:09:44.507Z,2.30
2023-04-12T03:12:12.474Z,2.10
2023-04-12T03:14:47.485Z,2.03
2023-04-12T03:17:15.873Z,2.30
2023-04-12T03:19:43.120Z,2.15
2023-04-12T03:22:10.904Z,2.05
2023-04-12T03:24:42.876Z,2.20
2023-04-12T03:27:11.906Z,2.13
2023-04-12T03:29:38.820Z,2.30
2023-04-12T03:32:05.439Z,1.90
2023-04-12T03:34:34.082Z,1.90
2023-04-12T03:37:09.185Z,2.25
2023-04-12T03:39:42.025Z,2.08
2023-04-12T03:42:21.553Z,1.90
2023-04-12T03:44:57.077Z,1.77
2023-04-12T03:47:23.739Z,1.90
2023-04-12T03:50:06.134Z,1.92
2023-04-12T03:52:38.554Z,2.22
2023-04-12T03:55:07.817Z,1.67
2023-04-12T03:57:35.817Z,1.92
2023-04-12T04:00:04.380Z,2.13
2023-04-12T04:02:45.154Z,2.25
2023-04-12T04:05:13.014Z,1.98
2023-04-12T04:07:40.498Z,2.20
2023-04-12T04:10:07.663Z,2.05
2023-04-12T04:12:38.026Z,1.95
2023-04-12T04:15:05.376Z,2.00
2023-04-12T04:17:33.654Z,1.83
2023-04-12T04:20:00.654Z,1.95
2023-04-12T04:22:29.650Z,1.80
2023-04-12T04:25:01.163Z,2.20
2023-04-12T04:27:30.652Z,2.03
2023-04-12T04:29:59.600Z,1.65
2023-04-12T04:32:26.886Z,1.67
2023-04-12T04:34:59.821Z,2.13
2023-04-12T04:37:35.215Z,1.80
2023-04-12T04:40:11.627Z,2.05
2023-04-12T04:42:39.742Z,2.03
2023-04-12T04:45:13.695Z,1.80
2023-04-12T04:47:43.513Z,1.83
2023-04-12T04:50:10.782Z,2.10
2023-04-12T04:52:40.248Z,1.80
2023-04-12T04:55:11.725Z,2.38
2023-04-12T04:57:41.217Z,1.70
2023-04-12T05:00:11.782Z,2.10
2023-04-12T05:02:43.660Z,2.20
2023-04-12T05:05:14.023Z,1.85
2023-04-12T05:07:41.444Z,2.30
2023-04-12T05:10:08.864Z,2.13
2023-04-12T05:12:39.236Z,2.38
2023-04-12T05:15:11.587Z,2.22
2023-04-12T05:17:39.647Z,2.20
2023-04-12T05:20:08.639Z,2.17
2023-04-12T05:22:36.169Z,1.92
2023-04-12T05:25:04.225Z,2.30
2023-04-12T05:27:34.783Z,2.80
2023-04-12T05:30:04.294Z,2.42
2023-04-12T05:32:31.133Z,2.65
2023-04-12T05:34:58.584Z,2.47
2023-04-12T05:37:26.122Z,3.22
2023-04-12T05:39:52.737Z,3.03
2023-04-12T05:42:19.471Z,3.05
2023-04-12T05:44:49.755Z,3.60
2023-04-12T05:47:17.295Z,3.38
2023-04-12T05:49:43.948Z,3.90
2023-04-12T05:52:12.065Z,3.58
2023-04-12T05:54:39.444Z,3.40
2023-04-12T05:57:07.875Z,3.28
2023-04-12T05:59:34.738Z,3.50
2023-04-12T06:02:01.790Z,3.47
2023-04-12T06:04:42.433Z,3.17
2023-04-12T06:07:16.411Z,3.13
2023-04-12T06:09:43.056Z,3.42
2023-04-12T06:12:09.909Z,3.20
2023-04-12T06:14:36.552Z,3.45
2023-04-12T06:17:03.437Z,3.17
2023-04-12T06:19:30.106Z,3.10
2023-04-12T06:21:56.792Z,2.95
2023-04-12T06:24:26.116Z,2.90
2023-04-12T06:26:53.168Z,2.90
2023-04-12T06:29:20.897Z,2.78
2023-04-12T06:31:48.391Z,3.10
2023-04-12T06:34:16.031Z,3.05
2023-04-12T06:36:46.260Z,2.70
2023-04-12T06:39:13.050Z,3.08
2023-04-12T06:41:40.009Z,2.85
2023-04-12T06:44:06.838Z,2.80
2023-04-12T06:46:33.590Z,2.55
2023-04-12T06:49:00.626Z,2.50
2023-04-12T06:51:28.134Z,3.20
2023-04-12T06:53:56.126Z,2.80
2023-04-12T06:56:22.755Z,2.80
2023-04-12T06:58:49.353Z,2.90
2023-04-12T07:01:16.095Z,3.20
2023-04-12T07:03:42.814Z,2.70
2023-04-12T07:06:23.811Z,2.88
2023-04-12T07:08:51.441Z,2.45
2023-04-12T07:11:20.565Z,2.58
2023-04-12T07:13:49.002Z,2.80
2023-04-12T07:16:15.921Z,2.80
2023-04-12T07:18:42.674Z,2.65
2023-04-12T07:21:09.355Z,3.30
2023-04-12T07:23:36.263Z,2.50
2023-04-12T07:26:02.946Z,2.90
2023-04-12T07:28:29.694Z,2.75
2023-04-12T07:30:56.480Z,2.83
2023-04-12T07:33:23.292Z,2.60
2023-04-12T07:35:50.028Z,2.78
2023-04-12T07:38:17.039Z,3.30
2023-04-12T07:40:43.958Z,2.53
2023-04-12T07:43:10.660Z,2.97
2023-04-12T07:45:38.042Z,2.58
2023-04-12T07:48:05.451Z,2.80
2023-04-12T07:50:32.324Z,3.03
2023-04-12T07:53:23.951Z,2.70
2023-04-12T07:55:51.076Z,3.13
2023-04-12T07:58:18.792Z,2.67
2023-04-12T08:00:46.012Z,2.67
2023-04-12T08:03:13.764Z,2.70
2023-04-12T08:05:40.922Z,2.67
2023-04-12T08:08:10.095Z,2.42
2023-04-12T08:10:37.514Z,2.83
2023-04-12T08:13:06.046Z,2.78
2023-04-12T08:15:33.083Z,2.72
2023-04-12T08:18:00.011Z,2.95
2023-04-12T08:20:26.693Z,2.60
2023-04-12T08:22:54.542Z,2.45
2023-04-12T08:25:21.490Z,2.47
2023-04-12T08:27:49.813Z,2.45
2023-04-12T08:30:17.289Z,2.30
2023-04-12T08:32:43.965Z,2.45
2023-04-12T08:35:11.413Z,2.08
2023-04-12T08:37:38.159Z,2.33
2023-04-12T08:40:08.172Z,2.33
2023-04-12T08:42:38.724Z,2.25
2023-04-12T08:45:06.820Z,2.20
2023-04-12T08:47:41.149Z,2.00
2023-04-12T08:50:09.533Z,2.20
2023-04-12T08:52:37.591Z,2.03
2023-04-12T08:55:05.481Z,2.20
2023-04-12T08:57:35.525Z,3.17
2023-04-12T09:00:03.772Z,2.15
2023-04-12T09:02:31.378Z,1.80
2023-04-12T09:04:58.655Z,2.15
2023-04-12T09:07:30.444Z,2.30
2023-04-12T09:09:58.408Z,2.30
2023-04-12T09:12:25.559Z,2.72
2023-04-12T09:15:17.560Z,2.42
2023-04-12T09:17:44.552Z,2.28
2023-04-12T09:20:17.396Z,1.45
2023-04-12T09:22:46.190Z,1.95
2023-04-12T09:25:14.362Z,2.10
2023-04-12T09:27:47.893Z,2.03
2023-04-12T09:30:15.717Z,2.10
2023-04-12T09:32:42.823Z,2.15
2023-04-12T09:35:09.993Z,2.20
2023-04-12T09:37:36.640Z,1.90
2023-04-12T09:40:08.287Z,1.70
2023-04-12T09:42:52.322Z,1.60
2023-04-12T09:45:24.302Z,1.50
2023-04-12T09:47:51.705Z,1.95
2023-04-12T09:50:23.108Z,1.77
2023-04-12T09:52:50.508Z,1.50
2023-04-12T09:55:17.651Z,1.60
2023-04-12T09:57:45.484Z,1.58
2023-04-12T10:00:20.081Z,1.17
2023-04-12T10:02:52.238Z,1.27
2023-04-12T10:05:21.596Z,1.50
2023-04-12T10:07:49.231Z,1.40
2023-04-12T10:10:18.370Z,1.50
2023-04-12T10:12:47.894Z,1.55
2023-04-12T10:15:18.103Z,1.20
2023-04-12T10:17:54.092Z,1.42
2023-04-12T10:20:23.313Z,1.48
2023-04-12T10:22:53.150Z,1.30
2023-04-12T10:25:24.053Z,1.33
2023-04-12T10:27:51.157Z,1.42
2023-04-12T10:30:31.201Z,1.20
2023-04-12T10:33:08.290Z,1.42
2023-04-12T10:35:54.487Z,1.38
2023-04-12T10:38:24.898Z,1.40
2023-04-12T10:43:37.165Z,1.70
2023-04-12T10:46:07.265Z,1.65
2023-04-12T10:48:51.406Z,1.90
2023-04-12T10:51:23.634Z,1.80
2023-04-12T10:53:53.869Z,1.65
2023-04-12T10:56:32.305Z,0.98
2023-04-12T10:59:01.006Z,1.17
2023-04-12T11:01:32.451Z,1.10
2023-04-12T11:04:05.924Z,0.80
2023-04-12T11:06:41.735Z,0.80
2023-04-12T11:09:43.732Z,0.73
2023-04-12T11:12:18.430Z,0.82
2023-04-12T11:14:45.627Z,0.70
2023-04-12T11:17:15.814Z,0.80
2023-04-12T11:22:16.481Z,0.82
2023-04-12T11:24:44.995Z,1.02
2023-04-12T11:27:12.259Z,0.80
2023-04-12T11:29:38.977Z,0.95
2023-04-12T11:32:07.258Z,1.00
2023-04-12T11:34:35.040Z,1.40
2023-04-12T11:37:06.715Z,1.17
2023-04-12T11:39:41.372Z,1.20
2023-04-12T11:42:19.250Z,1.40
2023-04-12T11:47:16.793Z,1.42
2023-04-12T11:49:45.500Z,1.40
2023-04-12T11:52:12.847Z,1.20
2023-04-12T11:55:04.690Z,1.23
2023-04-12T11:57:31.492Z,1.70
2023-04-12T11:59:59.404Z,1.35
2023-04-12T12:02:30.313Z,1.90
2023-04-12T12:05:00.101Z,0.80
2023-04-12T12:07:27.858Z,0.80
2023-04-12T12:09:54.683Z,0.80
2023-04-12T12:12:23.629Z,1.10
2023-04-12T12:14:50.901Z,1.20
2023-04-12T12:17:17.859Z,1.00
2023-04-12T12:19:45.993Z,0.80
2023-04-12T12:22:17.249Z,0.63
2023-04-12T12:24:52.053Z,0.95
2023-04-12T12:27:20.566Z,0.65
2023-04-12T12:29:51.195Z,0.50
2023-04-12T12:34:53.059Z,0.68
2023-04-12T12:37:27.029Z,0.68
2023-04-12T12:40:16.801Z,0.50
2023-04-12T12:42:55.136Z,0.43
2023-04-12T12:45:23.990Z,0.30
2023-04-12T12:47:53.478Z,0.20
2023-04-12T12:50:25.195Z,0.30
2023-04-12T12:52:52.605Z,0.30
2023-04-12T12:55:21.139Z,0.40
2023-04-12T12:58:02.055Z,0.55
2023-04-12T13:00:33.313Z,0.40
2023-04-12T13:03:00.320Z,0.40
2023-04-12T13:05:27.413Z,0.30
2023-04-12T13:07:54.232Z,0.20
2023-04-12T13:10:21.128Z,0.30
2023-04-12T13:12:47.730Z,0.40
2023-04-12T13:17:44.110Z,0.40
2023-04-12T13:20:10.889Z,0.40
2023-04-12T13:22:37.583Z,0.52
2023-04-12T13:25:04.390Z,0.40
2023-04-12T13:27:31.054Z,0.40
2023-04-12T13:29:57.631Z,0.60
2023-04-12T13:32:24.267Z,0.63
2023-04-12T13:34:51.170Z,0.70
2023-04-12T13:37:17.870Z,0.60
2023-04-12T13:39:44.754Z,0.70
2023-04-12T13:42:11.666Z,0.60
2023-04-12T13:44:38.308Z,0.70
2023-04-12T13:47:05.068Z,0.70
2023-04-12T13:49:31.917Z,1.27
2023-04-12T13:51:58.527Z,1.77
2023-04-12T13:54:25.312Z,1.83
2023-04-12T13:56:51.933Z,1.65
2023-04-12T13:59:18.844Z,1.00
2023-04-12T14:01:45.883Z,1.23
2023-04-12T14:04:12.704Z,1.00
2023-04-12T14:06:39.468Z,1.25
2023-04-12T14:09:06.314Z,0.35
2023-04-12T14:11:46.087Z,0.30
2023-04-12T14:14:14.797Z,1.30
2023-04-12T14:16:42.835Z,0.40
2023-04-12T14:19:09.545Z,0.40
2023-04-12T14:21:36.470Z,0.80
2023-04-12T14:24:03.925Z,2.00
2023-04-12T14:26:30.751Z,1.60
2023-04-12T14:28:57.690Z,0.40
2023-04-12T14:31:24.712Z,0.70
2023-04-12T14:33:52.540Z,0.57
2023-04-12T14:36:19.109Z,0.77
2023-04-12T14:38:45.765Z,0.70
2023-04-12T14:41:13.783Z,0.50
2023-04-12T14:43:40.841Z,1.33
2023-04-12T14:46:07.777Z,1.08
2023-04-12T14:48:34.440Z,0.60
2023-04-12T14:51:01.193Z,0.32
2023-04-12T14:53:28.028Z,0.40
2023-04-12T14:55:54.594Z,0.43
2023-04-12T14:58:21.163Z,0.40
2023-04-12T15:00:49.132Z,0.30
2023-04-12T15:03:17.252Z,0.30
2023-04-12T15:05:44.300Z,0.40
2023-04-12T15:08:11.056Z,0.50
2023-04-12T15:10:37.872Z,0.40
2023-04-12T15:13:04.500Z,0.50
2023-04-12T15:15:31.358Z,0.40
2023-04-12T15:17:58.075Z,0.30
2023-04-12T15:20:24.697Z,0.40
2023-04-12T15:22:51.296Z,0.47
2023-04-12T15:25:17.975Z,0.50
2023-04-12T15:27:44.560Z,0.30
2023-04-12T15:30:14.441Z,0.60
2023-04-12T15:32:42.664Z,0.73
2023-04-12T15:35:25.278Z,0.57
2023-04-12T15:37:55.072Z,0.73
2023-04-12T15:40:22.741Z,0.73
2023-04-12T15:42:49.891Z,0.50
2023-04-12T15:45:17.023Z,0.60
2023-04-12T15:47:45.834Z,0.60
2023-04-12T15:50:13.118Z,0.60
2023-04-12T15:52:42.865Z,0.90
2023-04-12T15:55:11.691Z,0.93
2023-04-12T15:57:39.342Z,0.60
2023-04-12T16:00:21.179Z,0.35
2023-04-12T16:02:53.699Z,0.60
2023-04-12T16:05:21.166Z,0.50
2023-04-12T16:07:51.527Z,0.50
2023-04-12T16:12:49.488Z,0.60
2023-04-12T16:15:17.612Z,0.65
2023-04-12T16:17:45.063Z,0.68
2023-04-12T16:20:13.257Z,0.80
2023-04-12T16:22:40.873Z,0.88
2023-04-12T16:25:08.391Z,0.95
2023-04-12T16:27:35.009Z,0.82
2023-04-12T16:30:02.987Z,0.88
2023-04-12T16:32:29.769Z,2.22
2023-04-12T16:34:56.594Z,1.25
2023-04-12T16:37:23.218Z,0.70
2023-04-12T16:39:51.084Z,0.88
2023-04-12T16:42:17.771Z,1.15
2023-04-12T16:44:44.363Z,0.50
2023-04-12T16:47:11.141Z,1.00
2023-04-12T16:49:37.861Z,1.27
2023-04-12T16:52:04.705Z,0.93
2023-04-12T16:54:31.581Z,1.33
2023-04-12T16:56:58.642Z,1.80
2023-04-12T16:59:25.331Z,1.65
2023-04-12T17:01:53.191Z,1.30
2023-04-12T17:04:20.285Z,1.08
2023-04-12T17:06:47.329Z,1.00
2023-04-12T17:09:14.007Z,1.10
2023-04-12T17:11:40.749Z,1.70
2023-04-12T17:14:07.730Z,1.90
2023-04-12T17:16:34.788Z,0.95
2023-04-12T17:19:01.424Z,1.20
2023-04-12T17:21:28.448Z,1.20
2023-04-12T17:23:56.098Z,0.90
2023-04-12T17:26:26.017Z,1.08
2023-04-12T17:28:52.984Z,0.90
2023-04-12T17:31:20.976Z,0.93
2023-04-12T17:33:47.836Z,1.40
2023-04-12T17:36:15.092Z,1.45
2023-04-12T17:38:41.815Z,0.88
2023-04-12T17:41:09.352Z,1.48
2023-04-12T17:43:36.184Z,0.90
2023-04-12T17:46:03.969Z,1.15
2023-04-12T17:48:31.943Z,0.90
2023-04-12T17:50:59.672Z,0.40
2023-04-12T17:53:26.445Z,0.70
2023-04-12T17:55:53.122Z,0.70
2023-04-12T17:58:24.952Z,0.40
2023-04-12T18:00:51.697Z,0.22
2023-04-12T18:03:19.071Z,0.30
2023-04-12T18:05:46.231Z,0.20
2023-04-12T18:08:13.174Z,0.25
2023-04-12T18:10:40.457Z,0.20
2023-04-12T18:13:08.030Z,0.20
2023-04-12T18:15:34.803Z,0.28
2023-04-12T18:18:01.545Z,0.20
2023-04-12T18:20:29.043Z,0.43
2023-04-12T18:22:55.824Z,0.20
2023-04-12T18:25:22.443Z,0.32
2023-04-12T18:27:49.093Z,0.32
2023-04-12T18:30:17.304Z,0.40
2023-04-12T18:32:44.535Z,0.30
2023-04-12T18:35:11.256Z,0.50
2023-04-12T18:37:38.009Z,0.20
2023-04-12T18:40:07.279Z,0.30
2023-04-12T18:42:34.708Z,0.32
2023-04-12T18:45:01.758Z,0.38
2023-04-12T18:47:28.644Z,0.30
2023-04-12T18:49:55.453Z,0.40
2023-04-12T18:52:22.326Z,0.22
2023-04-12T18:54:48.954Z,0.20
2023-04-12T18:57:15.848Z,0.22
2023-04-12T18:59:44.740Z,0.25
2023-04-12T19:02:12.213Z,0.38
2023-04-12T19:04:41.101Z,0.60
2023-04-12T19:07:08.098Z,0.30
2023-04-12T19:09:35.070Z,0.40
2023-04-12T19:12:02.876Z,0.60
2023-04-12T19:14:30.515Z,0.40
2023-04-12T19:16:57.448Z,0.65
2023-04-12T19:19:24.212Z,0.80
2023-04-12T19:21:51.186Z,0.55
2023-04-12T19:24:17.773Z,0.70
2023-04-12T19:26:47.316Z,1.00
2023-04-12T19:29:17.631Z,0.80
2023-04-12T19:31:45.825Z,0.88
2023-04-12T19:34:13.030Z,0.80
2023-04-12T19:36:40.190Z,0.60
2023-04-12T19:39:07.087Z,0.60
2023-04-12T19:41:33.726Z,0.80
2023-04-12T19:44:00.698Z,0.60
2023-04-12T19:46:28.803Z,0.60
2023-04-12T19:48:55.444Z,0.68
2023-04-12T19:51:22.079Z,1.20
2023-04-12T19:53:50.427Z,2.35
2023-04-12T19:56:17.139Z,2.00
2023-04-12T19:58:44.552Z,1.60
2023-04-12T20:01:11.868Z,1.10
2023-04-12T20:03:40.511Z,1.38
2023-04-12T20:06:07.243Z,1.20
2023-04-12T20:08:34.081Z,1.58
2023-04-12T20:11:01.885Z,1.70
2023-04-12T20:13:30.688Z,1.30
2023-04-12T20:15:57.782Z,1.10
2023-04-12T20:18:24.577Z,0.95
2023-04-12T20:20:53.084Z,0.88
2023-04-12T20:23:19.872Z,1.00
2023-04-12T20:25:48.964Z,1.13
2023-04-12T20:28:15.937Z,1.30
2023-04-12T20:30:42.754Z,1.00
2023-04-12T20:33:10.738Z,1.23
2023-04-12T20:35:38.129Z,1.55
2023-04-12T20:38:05.194Z,1.50
2023-04-12T20:40:32.088Z,1.10
2023-04-12T20:42:59.519Z,0.93
2023-04-12T20:45:26.151Z,1.20
2023-04-12T20:47:52.774Z,1.23
2023-04-12T20:50:22.333Z,1.05
2023-04-12T20:52:49.809Z,1.20
2023-04-12T20:55:16.532Z,1.10
2023-04-12T20:57:43.907Z,1.02
2023-04-12T21:00:23.650Z,1.23
2023-04-12T21:02:50.853Z,1.23
2023-04-12T21:05:17.632Z,1.20
2023-04-12T21:07:46.390Z,0.93
2023-04-12T21:10:13.380Z,1.15
2023-04-12T21:12:41.123Z,1.30
2023-04-12T21:15:08.674Z,1.35
2023-04-12T21:17:36.087Z,1.40
2023-04-12T21:20:13.730Z,1.63
2023-04-12T21:22:41.940Z,1.40
2023-04-12T21:25:13.584Z,1.50
2023-04-12T21:27:43.653Z,1.58
2023-04-12T21:30:11.200Z,1.20
2023-04-12T21:32:38.505Z,1.10
2023-04-12T21:35:08.866Z,1.10
2023-04-12T21:40:07.549Z,1.27
2023-04-12T21:42:35.448Z,1.30
2023-04-12T21:45:02.742Z,1.10
2023-04-12T21:47:29.739Z,1.25
2023-04-12T21:49:56.384Z,1.00
2023-04-12T21:52:23.049Z,0.88
2023-04-12T21:54:49.700Z,0.90
2023-04-12T21:57:16.264Z,1.00
2023-04-12T21:59:45.959Z,1.20
2023-04-12T22:02:13.048Z,1.10
2023-04-12T22:04:40.219Z,0.95
2023-04-12T22:07:10.019Z,1.13
2023-04-12T22:09:36.610Z,0.95
2023-04-12T22:12:06.525Z,1.42
2023-04-12T22:14:34.616Z,1.02
2023-04-12T22:17:02.244Z,1.10
2023-04-12T22:19:28.861Z,1.00
2023-04-12T22:21:55.541Z,0.98
2023-04-12T22:24:23.358Z,1.23
2023-04-12T22:26:49.947Z,0.80
2023-04-12T22:29:17.556Z,1.02
2023-04-12T22:31:45.449Z,0.80
2023-04-12T22:34:12.059Z,0.85
2023-04-12T22:36:42.105Z,0.90
2023-04-12T22:39:15.265Z,0.52
2023-04-12T22:41:42.021Z,0.70
2023-04-12T22:44:09.287Z,0.50
2023-04-12T22:46:38.685Z,0.50
2023-04-12T22:49:05.767Z,0.60
2023-04-12T22:51:32.646Z,0.32
2023-04-12T22:53:59.631Z,0.45
2023-04-12T22:56:27.056Z,0.40
2023-04-12T22:58:53.736Z,0.50
2023-04-12T23:01:21.376Z,0.73
2023-04-12T23:03:48.158Z,0.50
2023-04-12T23:06:14.874Z,0.55
2023-04-12T23:08:43.395Z,0.70
2023-04-12T23:11:11.053Z,0.60
2023-04-12T23:13:37.987Z,0.40
2023-04-12T23:16:07.433Z,0.50
2023-04-12T23:18:34.217Z,0.47
2023-04-12T23:21:02.714Z,0.55
2023-04-12T23:23:29.610Z,0.75
2023-04-12T23:25:56.384Z,0.68
2023-04-12T23:28:24.325Z,0.50
2023-04-12T23:30:51.618Z,0.80
2023-04-12T23:33:20.301Z,0.60
2023-04-12T23:36:02.571Z,0.60
2023-04-12T23:38:33.637Z,0.60
2023-04-12T23:41:02.114Z,0.60
2023-04-12T23:43:29.389Z,0.80
2023-04-12T23:45:56.509Z,0.60
2023-04-12T23:48:23.885Z,0.60
2023-04-12T23:50:51.294Z,0.63
2023-04-12T23:53:18.651Z,0.77
2023-04-12T23:55:53.181Z,1.00
2023-04-12T23:58:20.713Z,0.65
